Time;durP1;ratioP1;P1;durP2;ratioP2;P2;SDS_P1;SDS_P2;PMS_P1;PMS_P2;Temp;Humidity;BMP_temperature;BMP_pressure;BME280_temperature;BME280_humidity;BME280_pressure;Samples;Min_cycle;Max_cycle;Signal;HPM_P1;HPM_P2
2022/04/21 00:00:32;;;;;;;10.25;8.02;;;;;;;9.01;89.48;100578.63;5053194;28;20548;-80
2022/04/21 00:02:59;;;;;;;10.52;8.77;;;;;;;9.05;89.01;100565.84;5053481;28;20064;-80
2022/04/21 00:05:24;;;;;;;11.20;9.50;;;;;;;9.09;89.04;100580.72;5053305;28;20025;-80
2022/04/21 00:07:50;;;;;;;11.18;9.82;;;;;;;9.10;88.73;100579.75;5054765;28;20401;-80
2022/04/21 00:10:16;;;;;;;23.23;17.52;;;;;;;9.12;88.67;100591.22;5075358;28;20019;-80
2022/04/21 00:12:42;;;;;;;13.88;10.80;;;;;;;9.10;88.48;100591.34;5053494;28;20025;-79
2022/04/21 00:15:09;;;;;;;17.73;12.70;;;;;;;9.08;88.49;100590.59;5053291;28;20059;-79
2022/04/21 00:17:35;;;;;;;14.20;11.55;;;;;;;9.13;88.66;100601.00;5053182;28;20033;-80
2022/04/21 00:20:00;;;;;;;14.70;11.23;;;;;;;9.21;88.72;100603.94;5053013;28;20025;-79
2022/04/21 00:25:11;;;;;;;16.23;12.70;;;;;;;9.05;87.39;100616.81;5053341;28;20066;-80
2022/04/21 00:27:42;;;;;;;16.27;12.95;;;;;;;9.08;87.87;100606.69;5051696;28;20028;-81
2022/04/21 00:30:08;;;;;;;17.40;13.80;;;;;;;9.01;86.98;100609.97;5052807;28;20029;-79
2022/04/21 00:32:35;;;;;;;16.42;12.60;;;;;;;8.98;85.90;100602.16;5052819;28;20052;-79
2022/04/21 00:35:01;;;;;;;15.82;13.55;;;;;;;8.91;86.59;100612.47;5053020;28;20032;-80
2022/04/21 00:37:27;;;;;;;18.42;13.88;;;;;;;8.94;87.27;100612.25;5053179;28;20024;-80
2022/04/21 00:39:53;;;;;;;16.52;13.45;;;;;;;8.93;87.97;100615.88;5052970;28;20502;-80
2022/04/21 00:42:18;;;;;;;16.50;14.57;;;;;;;8.89;88.17;100619.78;5052976;28;20083;-79
2022/04/21 00:44:44;;;;;;;16.70;13.63;;;;;;;8.96;88.62;100628.25;5053515;28;20036;-79
2022/04/21 00:47:10;;;;;;;16.80;14.00;;;;;;;8.94;88.38;100630.16;5058774;28;20080;-80
2022/04/21 00:49:36;;;;;;;14.63;12.93;;;;;;;8.91;88.31;100633.06;5052845;28;20094;-79
2022/04/21 00:52:02;;;;;;;16.55;13.30;;;;;;;8.99;88.51;100636.06;5052484;28;20025;-79
2022/04/21 00:54:32;;;;;;;21.80;13.70;;;;;;;9.05;88.73;100636.44;5051815;28;20098;-80
2022/04/21 00:57:02;;;;;;;17.52;13.48;;;;;;;9.03;89.00;100634.84;5052705;28;20112;-79
2022/04/21 00:59:28;;;;;;;16.33;14.07;;;;;;;9.03;88.96;100645.56;5052585;28;20031;-79
2022/04/21 01:04:40;;;;;;;20.90;15.45;;;;;;;9.11;87.73;100651.25;5052786;28;20044;-79
2022/04/21 01:07:08;;;;;;;19.70;16.48;;;;;;;9.07;87.33;100660.47;5052530;28;20108;-79
2022/04/21 01:09:40;;;;;;;20.83;17.20;;;;;;;9.09;86.87;100669.25;5052378;28;20029;-79
2022/04/21 01:12:11;;;;;;;20.13;14.77;;;;;;;8.92;86.71;100661.63;5052459;28;20028;-79
2022/04/21 01:14:37;;;;;;;17.42;13.05;;;;;;;8.81;86.32;100667.75;5051972;28;20079;-79
2022/04/21 01:17:04;;;;;;;18.65;13.32;;;;;;;8.58;84.71;100680.19;5052204;28;20479;-79
2022/04/21 01:19:29;;;;;;;15.48;12.07;;;;;;;8.53;85.13;100674.28;5050699;28;20410;-79
2022/04/21 01:21:55;;;;;;;16.05;12.73;;;;;;;8.60;85.45;100677.38;5052283;28;20033;-80
2022/04/21 01:24:20;;;;;;;13.98;12.13;;;;;;;8.62;86.15;100681.63;5051911;28;20032;-79
2022/04/21 01:26:46;;;;;;;13.00;11.55;;;;;;;8.57;87.02;100672.22;5051815;28;20021;-79
2022/04/21 01:29:12;;;;;;;12.68;11.05;;;;;;;8.56;87.36;100676.72;5051888;28;20025;-79
2022/04/21 01:31:38;;;;;;;13.30;11.27;;;;;;;8.62;87.69;100670.91;5051755;28;20023;-80
2022/04/21 01:34:04;;;;;;;12.75;10.73;;;;;;;8.62;87.38;100672.78;5051611;28;20056;-80
2022/04/21 01:36:29;;;;;;;12.05;10.82;;;;;;;8.54;86.57;100662.59;5051643;28;20028;-81
2022/04/21 01:41:38;;;;;;;12.07;10.50;;;;;;;8.45;86.48;100668.63;5051624;28;20032;-79
2022/04/21 01:44:04;;;;;;;13.38;11.57;;;;;;;8.51;86.16;100649.41;5051955;28;20047;-79
2022/04/21 01:46:29;;;;;;;14.82;11.55;;;;;;;8.58;86.08;100642.66;5067258;28;20036;-81
2022/04/21 01:48:55;;;;;;;10.85;9.75;;;;;;;8.64;86.58;100639.50;5058956;28;20147;-81
2022/04/21 01:51:20;;;;;;;13.65;10.23;;;;;;;8.58;85.68;100631.06;5051764;28;20021;-81
2022/04/21 01:53:46;;;;;;;14.00;12.07;;;;;;;8.61;86.06;100647.78;5051866;28;20525;-80
2022/04/21 01:56:12;;;;;;;18.38;15.70;;;;;;;8.57;87.11;100624.84;5051640;28;20029;-79
2022/04/21 01:58:37;;;;;;;18.40;15.10;;;;;;;8.60;87.02;100637.16;5051576;28;20343;-81
2022/04/21 02:01:03;;;;;;;14.88;13.07;;;;;;;8.63;86.58;100643.16;5051613;28;20533;-81
2022/04/21 02:03:30;;;;;;;15.27;13.38;;;;;;;8.77;86.79;100638.63;5051461;28;20029;-81
2022/04/21 02:05:56;;;;;;;15.30;12.90;;;;;;;8.85;86.90;100644.25;5050699;28;20412;-81
2022/04/21 02:08:22;;;;;;;13.98;10.35;;;;;;;8.80;86.46;100641.94;5051335;28;20028;-81
2022/04/21 02:10:47;;;;;;;11.35;9.82;;;;;;;8.88;86.24;100649.38;5051537;28;20036;-81
2022/04/21 02:13:13;;;;;;;12.30;11.02;;;;;;;8.89;85.91;100640.38;5051615;28;20101;-81
2022/04/21 02:15:39;;;;;;;16.58;10.45;;;;;;;8.90;85.68;100645.63;5049829;28;20017;-81
2022/04/21 02:18:04;;;;;;;10.88;9.70;;;;;;;8.85;85.23;100650.47;5051626;28;20116;-82
2022/04/21 02:20:30;;;;;;;12.55;10.43;;;;;;;8.95;85.51;100645.28;5051817;28;20037;-83
2022/04/21 02:22:56;;;;;;;13.20;10.80;;;;;;;8.86;85.23;100654.03;5072644;28;20029;-83
2022/04/21 02:25:22;;;;;;;11.65;10.18;;;;;;;8.86;85.37;100662.06;5051332;28;20119;-82
2022/04/21 02:27:49;;;;;;;10.13;8.80;;;;;;;8.75;85.61;100665.53;5051359;28;20032;-83
2022/04/21 02:30:18;;;;;;;12.68;10.73;;;;;;;8.66;85.36;100660.84;5050864;28;20052;-82
2022/04/21 02:32:44;;;;;;;12.70;10.27;;;;;;;8.58;84.56;100669.44;5051159;28;20557;-82
2022/04/21 02:35:11;;;;;;;14.00;11.60;;;;;;;8.63;84.69;100666.41;5051248;28;20056;-80
2022/04/21 02:37:37;;;;;;;14.15;10.98;;;;;;;8.47;84.85;100669.34;5051246;28;20025;-80
2022/04/21 02:40:04;;;;;;;14.30;11.95;;;;;;;8.43;84.79;100659.84;5051008;28;20021;-80
2022/04/21 02:42:30;;;;;;;15.60;12.32;;;;;;;8.33;84.87;100663.28;5050826;28;20032;-81
2022/04/21 02:44:55;;;;;;;14.05;11.70;;;;;;;8.43;86.08;100667.00;5049581;28;20063;-80
2022/04/21 02:47:21;;;;;;;16.73;12.55;;;;;;;8.33;86.06;100657.91;5051517;28;20422;-80
2022/04/21 02:49:48;;;;;;;16.23;13.38;;;;;;;8.28;85.74;100660.06;5051252;28;20021;-80
2022/04/21 02:52:14;;;;;;;17.00;13.75;;;;;;;8.25;86.07;100650.41;5050853;28;20500;-80
2022/04/21 02:57:26;;;;;;;16.02;12.40;;;;;;;8.15;84.96;100668.09;5051127;28;20032;-80
2022/04/21 02:59:56;;;;;;;15.48;12.70;;;;;;;8.12;85.01;100649.56;5051319;28;20052;-80
2022/04/21 03:02:23;;;;;;;18.42;14.07;;;;;;;8.13;85.01;100656.63;5051732;28;20036;-80
2022/04/21 03:04:49;;;;;;;14.80;12.88;;;;;;;8.02;84.96;100665.41;5051220;28;20074;-80
2022/04/21 03:07:17;;;;;;;19.55;14.88;;;;;;;7.99;85.17;100664.78;5051192;28;20054;-80
2022/04/21 03:09:43;;;;;;;17.75;14.73;;;;;;;7.97;84.75;100666.72;5050701;28;20086;-80
2022/04/21 03:12:10;;;;;;;19.23;15.60;;;;;;;7.98;85.28;100665.75;5050828;28;20028;-80
2022/04/21 03:14:36;;;;;;;17.00;14.43;;;;;;;7.93;86.00;100674.09;5050360;28;20483;-79
2022/04/21 03:17:06;;;;;;;21.42;16.48;;;;;;;7.88;85.60;100675.38;5052269;28;20025;-78
2022/04/21 03:19:32;;;;;;;22.15;15.75;;;;;;;7.90;86.59;100701.09;5054456;28;20032;-78
2022/04/21 03:24:42;;;;;;;19.45;15.80;;;;;;;7.61;86.05;100692.34;5073652;28;20350;-78
2022/04/21 03:27:07;;;;;;;17.13;14.55;;;;;;;7.66;85.85;100700.09;5054003;28;20029;-78
2022/04/21 03:29:37;;;;;;;20.05;16.17;;;;;;;7.55;85.65;100708.00;5054072;28;20060;-78
2022/04/21 03:32:09;;;;;;;18.60;16.13;;;;;;;7.58;86.60;100695.25;5052663;28;20025;-79
2022/04/21 03:34:41;;;;;;;20.35;16.75;;;;;;;7.57;86.73;100704.25;5054080;28;20053;-78
2022/04/21 03:37:13;;;;;;;23.58;19.02;;;;;;;7.51;86.20;100693.97;5054357;28;20087;-78
2022/04/21 03:39:39;;;;;;;28.42;20.33;;;;;;;7.50;86.63;100694.91;5053679;28;20040;-78
2022/04/21 03:42:06;;;;;;;24.65;19.40;;;;;;;7.44;86.92;100691.78;5053645;28;20078;-78
2022/04/21 03:44:32;;;;;;;24.27;19.02;;;;;;;7.40;86.83;100691.13;5053656;28;20463;-78
2022/04/21 03:46:58;;;;;;;27.73;20.15;;;;;;;7.40;86.38;100688.47;5053582;28;20028;-78
2022/04/21 03:49:25;;;;;;;28.38;20.60;;;;;;;7.47;87.09;100689.78;5053518;28;20143;-80
2022/04/21 03:51:51;;;;;;;24.35;19.52;;;;;;;7.45;87.09;100689.03;5053487;28;20028;-78
2022/04/21 03:54:16;;;;;;;24.80;19.30;;;;;;;7.45;86.65;100691.72;5053456;28;20043;-79
2022/04/21 03:56:42;;;;;;;23.92;20.10;;;;;;;7.36;86.10;100697.69;5053443;28;20383;-82
2022/04/21 03:59:08;;;;;;;24.65;19.33;;;;;;;7.38;86.61;100682.38;5063725;28;20406;-84
2022/04/21 04:01:34;;;;;;;25.23;19.08;;;;;;;7.44;86.58;100695.34;5053787;28;20033;-83
2022/04/21 04:03:59;;;;;;;24.20;19.15;;;;;;;7.51;87.04;100685.94;5053709;28;20033;-85
2022/04/21 04:11:53;;;;;;;25.05;19.50;;;;;;;7.66;86.48;100687.56;5053756;28;20058;-84
2022/04/21 04:14:21;;;;;;;25.55;20.13;;;;;;;7.74;85.96;100683.50;5053174;28;20474;-79
2022/04/21 04:16:47;;;;;;;26.50;19.88;;;;;;;7.82;86.04;100678.47;5052950;28;20025;-80
2022/04/21 04:19:12;;;;;;;22.13;18.50;;;;;;;7.82;85.74;100686.53;5054752;28;20544;-82
2022/04/21 04:21:38;;;;;;;21.20;17.60;;;;;;;7.84;85.86;100684.59;5056512;28;20083;-77
2022/04/21 04:24:05;;;;;;;23.05;19.67;;;;;;;7.92;86.30;100684.94;5052842;28;20028;-78
2022/04/21 04:26:32;;;;;;;24.80;19.45;;;;;;;7.98;85.83;100687.19;5051440;28;20032;-78
2022/04/21 04:28:57;;;;;;;26.90;18.90;;;;;;;7.98;85.28;100679.16;5051620;28;20029;-81
2022/04/21 04:31:22;;;;;;;24.45;19.05;;;;;;;8.02;85.78;100684.16;5052776;28;20021;-78
2022/04/21 04:33:48;;;;;;;23.63;18.88;;;;;;;7.91;84.31;100689.41;5052315;28;20459;-79
2022/04/21 04:36:16;;;;;;;26.48;18.80;;;;;;;7.92;84.44;100684.94;5052662;28;20021;-79
2022/04/21 04:38:42;;;;;;;22.60;18.33;;;;;;;7.87;84.26;100687.03;5052506;28;20020;-78
2022/04/21 04:43:52;;;;;;;22.23;19.10;;;;;;;7.89;85.38;100690.50;5052443;28;20533;-78
2022/04/21 04:46:35;;;;;;;23.92;19.75;;;;;;;7.93;84.93;100683.94;5052548;28;20029;-78
2022/04/21 04:49:09;;;;;;;27.90;20.63;;;;;;;7.91;85.06;100677.84;5052359;28;20037;-77
2022/04/21 04:51:37;;;;;;;25.33;18.17;;;;;;;7.99;85.40;100683.50;5052083;28;20025;-77
2022/04/21 04:54:05;;;;;;;25.23;18.80;;;;;;;7.92;84.75;100674.22;5051937;28;20036;-77
2022/04/21 04:56:31;;;;;;;25.52;20.08;;;;;;;8.03;84.81;100680.53;5052344;28;20115;-78
2022/04/21 04:58:57;;;;;;;23.50;18.38;;;;;;;8.08;84.71;100688.22;5052642;28;20483;-80
2022/04/21 05:01:32;;;;;;;22.83;17.45;;;;;;;8.15;84.96;100693.06;5067877;28;20040;-78
2022/04/21 05:04:06;;;;;;;27.48;17.75;;;;;;;8.24;83.98;100704.94;5056249;28;20104;-80
2022/04/21 05:06:38;;;;;;;21.75;16.90;;;;;;;8.23;83.95;100700.53;5052139;28;20021;-80
2022/04/21 05:09:06;;;;;;;23.95;17.17;;;;;;;8.26;84.54;100711.03;5052224;28;20028;-80
2022/04/21 05:11:33;;;;;;;22.77;17.98;;;;;;;8.31;83.97;100708.09;5051630;28;20036;-80
2022/04/21 05:13:59;;;;;;;33.80;17.92;;;;;;;8.40;84.21;100713.66;5051888;28;20029;-80
2022/04/21 05:16:27;;;;;;;24.38;17.05;;;;;;;8.36;84.71;100709.47;5051676;28;20045;-80
2022/04/21 05:18:53;;;;;;;21.00;16.55;;;;;;;8.47;84.47;100720.28;5051863;28;20441;-80
2022/04/21 05:21:19;;;;;;;23.60;17.42;;;;;;;8.53;83.35;100721.69;5051554;28;20025;-80
2022/04/21 05:23:47;;;;;;;20.23;15.77;;;;;;;8.54;83.76;100709.97;5051667;28;20151;-80
2022/04/21 05:26:15;;;;;;;24.48;18.20;;;;;;;8.71;84.47;100723.03;5051808;28;20183;-79
2022/04/21 05:28:42;;;;;;;22.52;17.60;;;;;;;8.84;85.21;100715.81;5052038;28;20021;-79
2022/04/21 05:31:08;;;;;;;25.23;16.63;;;;;;;8.90;84.30;100725.25;5053429;28;20055;-79
2022/04/21 05:33:35;;;;;;;27.60;18.17;;;;;;;8.97;83.08;100729.19;5053676;28;20049;-80
2022/04/21 05:36:01;;;;;;;25.08;14.60;;;;;;;8.89;81.35;100720.84;5058093;28;20021;-79
2022/04/21 05:38:28;;;;;;;18.95;14.05;;;;;;;9.05;81.14;100726.81;5057792;28;20084;-78
2022/04/21 05:40:54;;;;;;;18.45;13.18;;;;;;;9.13;81.08;100732.47;5057348;28;20025;-80
2022/04/21 05:43:21;;;;;;;39.83;15.30;;;;;;;9.21;81.30;100720.19;5057905;28;20037;-80
2022/04/21 05:45:48;;;;;;;22.35;15.10;;;;;;;9.22;79.56;100723.72;5060440;28;20024;-80
2022/04/21 05:48:15;;;;;;;22.40;14.25;;;;;;;9.32;80.00;100729.28;5055246;28;20094;-79
2022/04/21 05:50:45;;;;;;;25.65;13.70;;;;;;;9.40;80.41;100727.72;5051545;28;20029;-80
2022/04/21 05:53:19;;;;;;;21.77;13.55;;;;;;;9.38;80.29;100718.94;5051414;28;20040;-79
2022/04/21 05:55:45;;;;;;;21.27;13.90;;;;;;;9.44;79.21;100729.22;5051241;28;20100;-80
2022/04/21 05:58:11;;;;;;;23.83;13.90;;;;;;;9.55;78.88;100731.06;5051517;28;20106;-81
2022/04/21 06:00:36;;;;;;;27.83;13.23;;;;;;;9.48;78.19;100728.00;5051277;28;20055;-80
2022/04/21 06:03:02;;;;;;;21.17;12.95;;;;;;;9.60;79.67;100726.25;5051362;28;20039;-80
2022/04/21 06:05:27;;;;;;;23.00;15.50;;;;;;;9.58;79.21;100731.69;5050984;28;20025;-79
2022/04/21 06:07:53;;;;;;;34.88;13.98;;;;;;;9.60;78.91;100731.59;5051276;28;20143;-80
2022/04/21 06:10:21;;;;;;;24.63;14.90;;;;;;;9.68;79.04;100735.41;5051256;28;20052;-80
2022/04/21 06:12:46;;;;;;;21.13;13.52;;;;;;;9.74;79.14;100726.03;5051185;28;20112;-79
2022/04/21 06:15:12;;;;;;;22.08;13.32;;;;;;;9.78;77.76;100743.63;5050905;28;20063;-80
2022/04/21 06:17:37;;;;;;;21.00;12.50;;;;;;;9.94;78.18;100743.31;5051079;28;20112;-80
2022/04/21 06:20:04;;;;;;;23.00;12.93;;;;;;;9.90;77.85;100741.84;5049698;28;20083;-80
2022/04/21 06:22:29;;;;;;;19.00;12.32;;;;;;;10.06;77.16;100755.81;5051282;28;20025;-79
2022/04/21 06:24:55;;;;;;;15.98;12.45;;;;;;;10.14;77.69;100750.72;5051293;28;20025;-80
2022/04/21 06:27:20;;;;;;;20.50;11.45;;;;;;;10.17;76.17;100753.16;5051216;28;20028;-80
2022/04/21 06:29:46;;;;;;;21.60;14.18;;;;;;;10.28;77.34;100751.34;5049914;28;20029;-79
2022/04/21 06:32:11;;;;;;;19.98;12.00;;;;;;;10.42;77.40;100752.97;5049591;28;20032;-80
2022/04/21 06:34:37;;;;;;;19.65;11.98;;;;;;;10.43;77.05;100751.16;5051052;28;20039;-80
2022/04/21 06:37:04;;;;;;;19.10;11.35;;;;;;;10.46;75.52;100765.16;5059080;28;20025;-80
2022/04/21 06:39:29;;;;;;;23.65;10.13;;;;;;;10.55;75.56;100777.06;5071539;28;20387;-81
2022/04/21 06:41:55;;;;;;;23.20;10.77;;;;;;;10.55;75.69;100767.13;5055485;28;20406;-80
2022/04/21 06:49:48;;;;;;;24.88;11.15;;;;;;;10.54;75.36;100749.31;5050793;28;20048;-80
2022/04/21 06:52:13;;;;;;;19.55;11.23;;;;;;;10.74;75.35;100762.00;5052317;28;20475;-81
2022/04/21 06:54:39;;;;;;;18.38;11.75;;;;;;;10.78;75.69;100758.13;5054932;28;20453;-80
2022/04/21 06:57:04;;;;;;;30.90;11.23;;;;;;;10.86;73.98;100763.72;5054936;28;20456;-81
2022/04/21 06:59:30;;;;;;;21.25;10.95;;;;;;;10.85;73.92;100753.97;5054780;28;20478;-81
2022/04/21 07:01:55;;;;;;;29.48;11.82;;;;;;;10.98;72.85;100763.72;5056065;28;20033;-81
2022/04/21 07:04:21;;;;;;;18.30;10.55;;;;;;;10.92;72.87;100749.78;5054662;28;20086;-82
2022/04/21 07:06:46;;;;;;;14.70;10.27;;;;;;;11.02;72.44;100759.78;5054640;28;20070;-81
2022/04/21 07:09:12;;;;;;;15.68;11.25;;;;;;;11.06;72.97;100748.66;5054413;28;20048;-81
2022/04/21 07:11:38;;;;;;;16.02;9.80;;;;;;;11.11;73.45;100753.66;5054978;28;20028;-82
2022/04/21 07:14:04;;;;;;;18.17;10.60;;;;;;;11.11;74.08;100740.19;5054636;28;20128;-81
2022/04/21 07:16:30;;;;;;;36.05;11.68;;;;;;;11.09;73.47;100748.41;5056408;28;20036;-82
2022/04/21 07:18:55;;;;;;;11.15;9.80;;;;;;;11.18;72.12;100758.44;5058846;28;20035;-80
2022/04/21 07:21:21;;;;;;;12.38;10.48;;;;;;;11.21;72.67;100743.84;5052655;28;20112;-82
2022/04/21 07:23:46;;;;;;;11.32;9.50;;;;;;;11.35;73.03;100760.59;5054325;28;20439;-81
2022/04/21 07:26:12;;;;;;;49.15;16.63;;;;;;;11.33;72.25;100765.25;5054145;28;20025;-82
2022/04/21 07:28:38;;;;;;;21.98;10.98;;;;;;;11.46;72.88;100767.78;5053911;28;20036;-81
2022/04/21 07:31:04;;;;;;;15.00;11.15;;;;;;;11.60;72.43;100766.63;5053851;28;20103;-81
2022/04/21 07:33:29;;;;;;;16.98;10.50;;;;;;;11.71;71.20;100774.72;5053751;28;20092;-81
2022/04/21 07:35:55;;;;;;;12.77;9.70;;;;;;;11.82;70.71;100771.97;5053784;28;20040;-81
2022/04/21 07:38:21;;;;;;;18.35;9.15;;;;;;;11.93;69.34;100775.47;5053647;28;20032;-81
2022/04/21 07:40:50;;;;;;;16.77;10.32;;;;;;;11.99;71.40;100766.84;5056954;28;20513;-81
2022/04/21 07:43:16;;;;;;;18.05;9.75;;;;;;;12.08;70.71;100761.69;5052371;28;20475;-82
2022/04/21 07:45:42;;;;;;;19.17;10.57;;;;;;;12.17;68.74;100771.69;5053652;28;20021;-82
2022/04/21 07:48:08;;;;;;;19.75;9.35;;;;;;;12.28;69.29;100774.28;5052301;28;20048;-81
2022/04/21 07:50:34;;;;;;;18.42;8.63;;;;;;;12.26;68.98;100766.31;5053449;28;20032;-82
2022/04/21 07:53:15;;;;;;;20.00;9.77;;;;;;;12.33;69.60;100769.34;5053690;28;20087;-82
2022/04/21 07:55:44;;;;;;;23.77;9.73;;;;;;;12.49;69.88;100777.84;5053591;28;20124;-81
2022/04/21 07:58:10;;;;;;;13.93;10.15;;;;;;;12.56;68.93;100765.53;5053391;28;20522;-81
2022/04/21 08:00:36;;;;;;;16.35;9.18;;;;;;;12.69;68.69;100776.09;5053638;28;20036;-81
2022/04/21 08:03:03;;;;;;;15.40;8.10;;;;;;;12.74;66.94;100780.09;5053430;28;20021;-81
2022/04/21 08:05:30;;;;;;;15.13;9.23;;;;;;;12.74;65.16;100772.00;5053503;28;20025;-82
2022/04/21 08:07:55;;;;;;;24.10;8.93;;;;;;;12.85;68.02;100769.19;5053825;28;20044;-81
2022/04/21 08:10:22;;;;;;;22.73;9.07;;;;;;;12.85;65.80;100763.81;5053541;28;20041;-81
2022/04/21 08:12:52;;;;;;;20.63;10.48;;;;;;;12.94;65.96;100768.38;5053260;28;20040;-80
2022/04/21 08:15:36;;;;;;;12.68;9.27;;;;;;;12.96;65.64;100761.03;5057903;28;20033;-80
2022/04/21 08:18:04;;;;;;;12.80;7.43;;;;;;;12.98;62.99;100777.06;5068982;28;20140;-80
2022/04/21 08:20:32;;;;;;;11.77;8.27;;;;;;;12.99;63.64;100768.00;5054402;28;20036;-81
2022/04/21 08:22:58;;;;;;;13.45;7.57;;;;;;;13.07;65.34;100768.16;5052901;28;20029;-80
2022/04/21 08:33:37;;;;;;;10.55;7.50;;;;;;;13.42;63.75;100765.00;5053077;28;20055;-80
2022/04/21 08:36:03;;;;;;;15.25;8.35;;;;;;;13.51;63.16;100780.38;5053211;28;20506;-81
2022/04/21 08:38:33;;;;;;;16.90;10.80;;;;;;;13.68;66.34;100771.56;5054941;28;20037;-80
2022/04/21 08:41:06;;;;;;;18.10;8.60;;;;;;;13.64;61.20;100778.25;5056149;28;20051;-80
2022/04/21 08:43:33;;;;;;;14.57;7.65;;;;;;;13.63;60.36;100774.72;5052648;28;20079;-81
2022/04/21 08:46:02;;;;;;;12.32;8.32;;;;;;;13.64;64.20;100753.91;5052352;28;20446;-82
2022/04/21 08:48:28;;;;;;;16.83;8.93;;;;;;;13.65;61.22;100769.16;5053396;28;20494;-81
2022/04/21 08:50:53;;;;;;;12.65;9.55;;;;;;;13.63;61.35;100754.94;5052794;28;20021;-81
2022/04/21 08:53:26;;;;;;;20.98;9.07;;;;;;;13.71;61.51;100754.22;5052956;28;20037;-82
2022/04/21 08:55:53;;;;;;;18.38;9.82;;;;;;;13.77;61.16;100751.81;5052482;28;20025;-80
2022/04/21 08:58:19;;;;;;;14.50;9.00;;;;;;;13.91;62.10;100750.53;5052788;28;20090;-81
2022/04/21 09:00:45;;;;;;;13.68;10.82;;;;;;;14.02;61.40;100756.63;5053827;28;20090;-81
2022/04/21 09:03:14;;;;;;;23.85;10.32;;;;;;;14.12;58.54;100754.78;5052670;28;20071;-81
2022/04/21 09:05:40;;;;;;;56.15;13.35;;;;;;;14.04;59.80;100743.81;5052428;28;20091;-81
2022/04/21 09:08:17;;;;;;;23.23;10.98;;;;;;;14.21;60.11;100750.34;5052298;28;20405;-80
2022/04/21 09:10:43;;;;;;;12.90;10.23;;;;;;;14.38;60.15;100748.75;5052070;28;20055;-79
2022/04/21 09:13:09;;;;;;;26.25;9.88;;;;;;;14.41;59.67;100743.91;5052184;28;20047;-81
2022/04/21 09:15:37;;;;;;;19.45;10.50;;;;;;;14.45;56.90;100736.38;5051250;28;20037;-81
2022/04/21 09:18:11;;;;;;;18.25;10.55;;;;;;;14.54;58.77;100751.72;5052215;28;20129;-79
2022/04/21 09:20:37;;;;;;;16.83;10.07;;;;;;;14.59;57.93;100746.72;5052299;28;20032;-80
2022/04/21 09:23:31;;;;;;;16.55;8.98;;;;;;;14.67;57.54;100744.13;5051932;28;20033;-80
2022/04/21 09:26:13;;;;;;;21.80;11.32;;;;;;;14.70;56.51;100738.44;5051877;28;20461;-81
2022/04/21 09:28:39;;;;;;;33.33;12.73;;;;;;;14.74;55.79;100739.81;5052300;28;20033;-81
2022/04/21 09:31:09;;;;;;;15.88;9.93;;;;;;;14.87;57.79;100748.47;5052530;28;20064;-80
2022/04/21 09:33:40;;;;;;;17.55;10.82;;;;;;;14.94;55.14;100733.31;5052051;28;20076;-80
2022/04/21 09:36:07;;;;;;;28.17;11.63;;;;;;;15.01;56.36;100731.72;5051819;28;20490;-80
2022/04/21 09:38:36;;;;;;;15.15;9.48;;;;;;;15.17;55.13;100723.78;5050100;28;20020;-81
2022/04/21 09:41:09;;;;;;;19.85;8.90;;;;;;;15.31;55.52;100729.69;5050349;28;20025;-80
2022/04/21 09:43:37;;;;;;;13.20;9.80;;;;;;;15.45;53.62;100734.56;5051986;28;20564;-80
2022/04/21 09:46:15;;;;;;;17.33;9.38;;;;;;;15.55;53.01;100738.09;5057340;28;20127;-82
2022/04/21 09:48:41;;;;;;;20.63;10.68;;;;;;;15.55;53.65;100729.97;5052045;28;20135;-80
2022/04/21 09:51:11;;;;;;;13.55;9.68;;;;;;;15.51;52.41;100721.28;5051476;28;20024;-81
2022/04/21 09:53:55;;;;;;;14.80;8.05;;;;;;;15.56;52.95;100737.13;5056182;28;20037;-81
2022/04/21 09:56:37;;;;;;;14.82;9.18;;;;;;;15.56;54.55;100727.13;5067318;28;20033;-80
2022/04/21 09:59:07;;;;;;;12.05;8.57;;;;;;;15.68;51.94;100723.19;5051776;28;20052;-80
2022/04/21 10:01:36;;;;;;;27.35;9.50;;;;;;;15.76;52.34;100735.94;5051737;28;20106;-82
2022/04/21 10:04:06;;;;;;;20.42;11.23;;;;;;;15.83;51.43;100720.75;5052423;28;20379;-81
2022/04/21 10:06:35;;;;;;;24.25;9.88;;;;;;;15.83;50.04;100720.75;5052261;28;20043;-81
2022/04/21 10:09:01;;;;;;;18.80;9.70;;;;;;;15.89;48.91;100735.56;5052646;28;20162;-81
2022/04/21 10:11:28;;;;;;;32.50;9.98;;;;;;;15.77;50.05;100716.81;5052098;28;20025;-80
2022/04/21 10:13:56;;;;;;;39.00;8.88;;;;;;;15.65;53.85;100728.06;5051718;28;20082;-80
2022/04/21 10:16:28;;;;;;;21.98;6.60;;;;;;;15.29;56.55;100739.84;5056879;28;20105;-80
2022/04/21 10:18:57;;;;;;;24.40;8.48;;;;;;;14.72;57.78;100739.13;5066297;28;20143;-81
2022/04/21 10:21:26;;;;;;;13.98;7.43;;;;;;;14.71;58.93;100740.09;5050288;28;20215;-81
2022/04/21 10:23:53;;;;;;;21.65;6.93;;;;;;;14.69;58.88;100731.28;5050865;28;20027;-81
2022/04/21 10:26:35;;;;;;;27.20;7.55;;;;;;;14.59;58.32;100734.03;5051405;28;20024;-80
2022/04/21 10:29:13;;;;;;;10.93;6.90;;;;;;;14.30;58.80;100737.81;5055192;28;20541;-80
2022/04/21 10:31:55;;;;;;;9.65;7.00;;;;;;;14.17;59.98;100743.50;5056348;28;20025;-82
2022/04/21 10:34:42;;;;;;;14.43;7.50;;;;;;;14.17;60.46;100757.91;5055801;28;20045;-80
2022/04/21 10:37:20;;;;;;;31.23;10.18;;;;;;;14.09;61.06;100748.81;5054130;28;20025;-82
2022/04/21 10:40:06;;;;;;;13.95;7.60;;;;;;;13.93;61.18;100759.34;5055488;28;20434;-80
2022/04/21 10:42:58;;;;;;;44.88;11.48;;;;;;;13.99;61.62;100756.94;5055973;28;20474;-80
2022/04/21 10:45:27;;;;;;;23.23;7.97;;;;;;;13.90;61.18;100763.19;5056315;28;20017;-80
2022/04/21 10:48:08;;;;;;;22.60;7.85;;;;;;;14.08;61.38;100753.34;5056100;28;20520;-80
2022/04/21 10:50:36;;;;;;;13.40;7.47;;;;;;;14.08;60.89;100756.06;5056277;28;20086;-79
2022/04/21 10:58:34;;;;;;;11.93;9.05;;;;;;;14.41;58.06;100762.00;5055492;28;20076;-81
2022/04/21 11:01:15;;;;;;;13.82;7.63;;;;;;;14.46;58.87;100754.31;5055599;28;20028;-82
2022/04/21 11:03:42;;;;;;;23.93;7.60;;;;;;;14.64;58.32;100763.38;5055736;28;20025;-79
2022/04/21 11:06:15;;;;;;;14.48;7.32;;;;;;;14.64;56.43;100766.94;5055435;28;20043;-82
2022/04/21 11:08:44;;;;;;;16.15;7.88;;;;;;;14.59;57.49;100761.09;5055010;28;20043;-80
2022/04/21 11:11:13;;;;;;;33.03;7.68;;;;;;;14.36;57.25;100764.31;5055229;28;20116;-81
2022/04/21 11:13:41;;;;;;;38.03;9.02;;;;;;;14.21;57.99;100772.00;5054726;28;20029;-81
2022/04/21 11:16:06;;;;;;;16.55;7.68;;;;;;;13.99;58.75;100767.75;5055113;28;20116;-81
2022/04/21 11:18:33;;;;;;;15.98;8.30;;;;;;;14.05;59.39;100772.56;5055971;28;20056;-81
2022/04/21 11:21:26;;;;;;;21.67;8.75;;;;;;;14.30;59.94;100772.97;5055308;28;20118;-81
2022/04/21 11:23:54;;;;;;;34.55;9.75;;;;;;;14.52;58.82;100778.94;5055117;28;20024;-82
2022/04/21 11:26:27;;;;;;;38.75;8.75;;;;;;;14.62;58.64;100773.47;5055088;28;20029;-81
2022/04/21 11:28:52;;;;;;;;;;;;;;;14.68;57.77;100781.00;5056497;28;20032;-80
2022/04/21 11:31:21;;;;;;;39.83;8.63;;;;;;;14.64;57.14;100768.78;5055920;28;19909;-80
2022/04/21 11:33:47;;;;;;;15.88;7.47;;;;;;;14.62;57.30;100784.31;5065683;28;20068;-79
2022/04/21 11:36:14;;;;;;;17.58;6.72;;;;;;;14.69;56.97;100774.59;5062593;28;20029;-78
2022/04/21 11:38:41;;;;;;;30.60;9.10;;;;;;;15.02;57.37;100771.34;5060227;28;20620;-80
2022/04/21 11:41:09;;;;;;;14.70;8.40;;;;;;;15.26;57.20;100774.34;5055082;28;20025;-79
2022/04/21 11:43:35;;;;;;;23.98;7.65;;;;;;;15.44;57.02;100768.13;5056854;28;20021;-80
2022/04/21 11:46:05;;;;;;;22.90;7.82;;;;;;;15.64;56.87;100769.72;5054234;28;20027;-79
2022/04/21 11:48:34;;;;;;;19.58;7.07;;;;;;;15.79;56.07;100762.75;5055541;28;20044;-79
2022/04/21 11:51:00;;;;;;;12.20;6.25;;;;;;;15.61;54.18;100770.03;5054420;28;20059;-79
2022/04/21 11:53:36;;;;;;;24.90;6.88;;;;;;;15.64;55.48;100764.28;5054622;28;20055;-80
2022/04/21 11:56:05;;;;;;;29.25;8.20;;;;;;;15.71;56.10;100765.41;5054426;28;20150;-81
2022/04/21 11:58:34;;;;;;;28.70;7.68;;;;;;;15.83;55.89;100775.00;5054081;28;20431;-80
2022/04/21 12:06:39;;;;;;;19.55;7.57;;;;;;;15.98;55.40;100769.88;5054130;28;20055;-80